Terminal Aerodrome Forecast
Issued by NWS Wilmington, OH

Current Version | Previous Version | Graphics & Text | Print | Product List | Glossary On
Versions: 1 2 3 4 5 6 7 8 9 10 11 12 13 14 15 16 17 18 19
000
FTUS41 KILN 291100
TAFCMH
TAF
KCMH 291135Z 2912/3012 00000KT P6SM SCT110
     FM291400 30006KT P6SM FEW050
     FM300000 VRB03KT P6SM SKC
     FM301000 29005KT P6SM SCT035 BKN250=

USA.gov is the U.S. government's official web portal to all federal, state and local government web resources and services.